Time;durP1;ratioP1;P1;durP2;ratioP2;P2;SDS_P1;SDS_P2;PMS_P1;PMS_P2;Temp;Humidity;BMP_temperature;BMP_pressure;BME280_temperature;BME280_humidity;BME280_pressure;Samples;Min_cycle;Max_cycle;Signal;HPM_P1;HPM_P2
2022/09/01 00:01:26;;;;;;;3.63;2.50;;;16.00;98.00;;;;;;5030870;28;20975;-70
2022/09/01 00:03:54;;;;;;;4.90;3.20;;;16.00;98.00;;;;;;5030922;28;20470;-72
2022/09/01 00:06:24;;;;;;;5.10;3.40;;;16.10;98.00;;;;;;5030896;28;20466;-71
2022/09/01 00:08:54;;;;;;;5.40;2.80;;;16.10;98.00;;;;;;5013863;28;20455;-72
2022/09/01 00:11:23;;;;;;;6.10;3.80;;;16.00;98.00;;;;;;5013123;28;20949;-72
2022/09/01 00:13:51;;;;;;;4.40;2.80;;;15.90;98.00;;;;;;5030852;28;20958;-71
2022/09/01 00:16:19;;;;;;;5.10;2.93;;;15.90;98.00;;;;;;5013386;28;20463;-71
2022/09/01 00:18:49;;;;;;;7.70;3.00;;;16.00;98.00;;;;;;5030909;28;20484;-72
2022/09/01 00:21:17;;;;;;;7.07;3.33;;;16.00;98.00;;;;;;5030770;28;20462;-71
2022/09/01 00:23:48;;;;;;;4.70;2.87;;;16.20;98.00;;;;;;5030748;28;20475;-72
2022/09/01 00:26:16;;;;;;;5.90;3.30;;;16.40;98.00;;;;;;5030790;28;20466;-71
2022/09/01 00:28:44;;;;;;;5.20;3.30;;;16.40;98.00;;;;;;5030878;28;20458;-71
2022/09/01 00:31:13;;;;;;;6.67;3.70;;;16.30;98.00;;;;;;5030848;28;20963;-72
2022/09/01 00:33:41;;;;;;;4.90;3.10;;;16.20;98.00;;;;;;5031064;28;20826;-71
2022/09/01 00:36:09;;;;;;;4.23;3.13;;;15.90;98.00;;;;;;5032229;28;20488;-71
2022/09/01 00:38:37;;;;;;;7.23;2.97;;;15.70;98.00;;;;;;5034327;28;20462;-71
2022/09/01 00:41:06;;;;;;;5.40;3.03;;;15.80;98.00;;;;;;5034827;28;20462;-72
2022/09/01 00:43:40;;;;;;;7.07;3.30;;;15.80;98.00;;;;;;5035433;28;20466;-71
2022/09/01 00:46:11;;;;;;;6.27;3.27;;;15.70;98.00;;;;;;5035333;28;20454;-72
2022/09/01 00:48:39;;;;;;;4.37;2.77;;;15.70;98.00;;;;;;5034789;28;20533;-71
2022/09/01 00:51:09;;;;;;;7.07;3.10;;;15.60;98.00;;;;;;5034032;28;20465;-72
2022/09/01 00:53:38;;;;;;;4.23;2.90;;;15.50;98.00;;;;;;5035130;28;20455;-71
2022/09/01 00:56:07;;;;;;;6.47;3.23;;;15.60;98.00;;;;;;5035020;28;21039;-71
2022/09/01 00:58:35;;;;;;;11.37;3.33;;;15.60;98.00;;;;;;5035233;28;21019;-72
2022/09/01 01:01:05;;;;;;;5.30;3.37;;;15.70;98.00;;;;;;5033981;28;20462;-71
2022/09/01 01:03:32;;;;;;;5.80;3.27;;;15.70;98.00;;;;;;5034128;28;20459;-71
2022/09/01 01:06:07;;;;;;;5.90;3.40;;;15.80;98.00;;;;;;5033842;28;20451;-71
2022/09/01 01:08:38;;;;;;;4.50;2.80;;;15.80;98.00;;;;;;5033968;28;20453;-71
2022/09/01 01:11:08;;;;;;;5.23;3.00;;;15.80;98.00;;;;;;5033834;28;20454;-71
2022/09/01 01:13:49;;;;;;;5.80;3.13;;;15.80;98.00;;;;;;5033781;28;20466;-71
2022/09/01 01:16:18;;;;;;;4.27;2.80;;;15.80;98.00;;;;;;5033624;28;20513;-71
2022/09/01 01:18:46;;;;;;;5.57;2.87;;;15.70;98.00;;;;;;5033565;28;20458;-71
2022/09/01 01:24:18;;;;;;;5.30;3.40;;;15.70;98.00;;;;;;5033701;28;20442;-71
2022/09/01 01:26:46;;;;;;;4.20;3.20;;;15.60;98.00;;;;;;5033581;28;20517;-72
2022/09/01 01:29:14;;;;;;;6.07;3.50;;;15.60;98.00;;;;;;5033570;28;20464;-71
2022/09/01 01:31:42;;;;;;;6.20;3.33;;;15.60;98.00;;;;;;5016279;28;20458;-71
2022/09/01 01:34:10;;;;;;;5.67;3.27;;;15.60;98.00;;;;;;5033663;28;20533;-71
2022/09/01 01:36:40;;;;;;;6.17;3.37;;;15.70;98.00;;;;;;5016206;28;20520;-72
2022/09/01 01:39:10;;;;;;;3.67;2.70;;;15.80;98.00;;;;;;5033457;28;20462;-71
2022/09/01 01:41:42;;;;;;;5.27;3.10;;;15.80;98.00;;;;;;5033260;28;20458;-71
2022/09/01 01:44:10;;;;;;;5.67;2.70;;;15.90;98.00;;;;;;5033165;28;20516;-71
2022/09/01 01:46:41;;;;;;;6.53;3.27;;;16.00;98.00;;;;;;5032849;28;20485;-71
2022/09/01 01:49:12;;;;;;;4.50;2.70;;;16.00;98.00;;;;;;5032848;28;20465;-71
2022/09/01 01:51:39;;;;;;;6.67;3.00;;;16.10;98.00;;;;;;5033253;28;20458;-71
2022/09/01 01:54:07;;;;;;;4.70;2.83;;;16.10;98.00;;;;;;5033003;28;20470;-71
2022/09/01 01:56:40;;;;;;;4.13;2.80;;;16.00;98.00;;;;;;5015502;28;20837;-71
2022/09/01 01:59:14;;;;;;;3.73;2.87;;;16.00;98.00;;;;;;5032828;28;20473;-71
2022/09/01 02:01:42;;;;;;;4.30;3.07;;;15.80;98.00;;;;;;5032864;28;20512;-72
2022/09/01 02:04:13;;;;;;;5.87;3.27;;;15.70;98.00;;;;;;5032727;28;20513;-71
2022/09/01 02:06:44;;;;;;;5.47;2.70;;;15.70;98.00;;;;;;5032726;28;20460;-71
2022/09/01 02:09:12;;;;;;;4.37;2.90;;;15.70;98.00;;;;;;5033081;28;20964;-70
2022/09/01 02:11:43;;;;;;;3.80;2.30;;;15.70;98.00;;;;;;5032562;28;20481;-71
2022/09/01 02:14:17;;;;;;;4.07;2.90;;;15.70;98.00;;;;;;5032660;28;20827;-71
2022/09/01 02:16:46;;;;;;;3.83;2.30;;;15.70;98.00;;;;;;5032490;28;20486;-72
2022/09/01 02:19:18;;;;;;;5.30;3.00;;;15.70;98.00;;;;;;5032542;28;20816;-72
2022/09/01 02:21:53;;;;;;;4.60;3.10;;;15.60;98.00;;;;;;5032288;28;20458;-72
2022/09/01 02:24:21;;;;;;;5.37;3.13;;;15.50;98.00;;;;;;5032552;28;20949;-71
2022/09/01 02:26:48;;;;;;;5.03;2.90;;;15.50;98.00;;;;;;5032348;28;20472;-71
2022/09/01 02:29:27;;;;;;;5.07;3.07;;;15.60;98.00;;;;;;5032411;28;20466;-72
2022/09/01 02:31:55;;;;;;;5.00;2.90;;;15.50;98.00;;;;;;5032579;28;20974;-70
2022/09/01 02:34:24;;;;;;;5.90;2.97;;;15.50;98.00;;;;;;5032546;28;20458;-71
2022/09/01 02:36:53;;;;;;;4.33;2.90;;;15.50;98.00;;;;;;5032183;28;20577;-71
2022/09/01 02:39:23;;;;;;;7.63;3.03;;;15.50;98.00;;;;;;5032126;28;20461;-71
2022/09/01 02:41:50;;;;;;;4.80;3.40;;;15.50;98.00;;;;;;5032045;28;20493;-71
2022/09/01 02:44:21;;;;;;;4.37;2.73;;;15.40;98.00;;;;;;5032067;28;20466;-71
2022/09/01 02:46:49;;;;;;;3.17;2.10;;;15.60;98.00;;;;;;5031949;28;20455;-71
2022/09/01 02:49:24;;;;;;;3.70;2.90;;;15.60;98.00;;;;;;5031820;28;20458;-71
2022/09/01 02:51:53;;;;;;;4.97;2.83;;;15.60;98.00;;;;;;5031859;28;20458;-71
2022/09/01 02:54:24;;;;;;;3.27;2.63;;;15.50;98.00;;;;;;5032054;28;21020;-71
2022/09/01 02:56:53;;;;;;;3.13;2.47;;;15.50;98.00;;;;;;5031910;28;20880;-72
2022/09/01 02:59:23;;;;;;;4.90;3.20;;;15.40;98.00;;;;;;5031528;28;20512;-71
2022/09/01 03:01:52;;;;;;;5.53;3.23;;;15.20;98.00;;;;;;5031710;28;20461;-71
2022/09/01 03:04:21;;;;;;;3.10;2.30;;;15.10;98.00;;;;;;5031856;28;20960;-72
2022/09/01 03:06:49;;;;;;;7.73;2.90;;;15.00;98.00;;;;;;5031759;28;20453;-72
2022/09/01 03:09:18;;;;;;;5.50;3.20;;;15.00;98.00;;;;;;5031486;28;20465;-71
2022/09/01 03:11:48;;;;;;;4.23;2.63;;;14.90;98.00;;;;;;5031548;28;20465;-71
2022/09/01 03:14:16;;;;;;;6.47;3.40;;;14.80;98.00;;;;;;5031515;28;20453;-71
2022/09/01 03:16:44;;;;;;;6.03;3.23;;;14.70;98.00;;;;;;5031392;28;20995;-71
2022/09/01 03:19:13;;;;;;;4.30;2.93;;;14.60;98.00;;;;;;5031429;28;20458;-71
2022/09/01 03:21:42;;;;;;;4.63;2.80;;;14.60;98.00;;;;;;5031261;28;20462;-71
2022/09/01 03:24:15;;;;;;;5.23;3.13;;;14.70;98.00;;;;;;5031332;28;20465;-70
2022/09/01 03:26:44;;;;;;;5.40;3.50;;;14.70;98.00;;;;;;5031581;28;20454;-71
2022/09/01 03:29:11;;;;;;;4.50;2.93;;;14.60;98.00;;;;;;5031604;28;20465;-71
2022/09/01 03:31:38;;;;;;;4.63;2.77;;;14.70;98.00;;;;;;5031673;28;20466;-71
2022/09/01 03:34:09;;;;;;;5.70;2.97;;;14.80;98.00;;;;;;5031394;28;20511;-71
2022/09/01 03:36:37;;;;;;;6.03;2.40;;;14.80;98.00;;;;;;5031345;28;20493;-71
2022/09/01 03:39:06;;;;;;;4.57;3.40;;;14.80;98.00;;;;;;5030509;28;20463;-71
2022/09/01 03:41:36;;;;;;;4.30;3.20;;;14.80;98.00;;;;;;5031185;28;20458;-71
2022/09/01 03:44:03;;;;;;;4.30;3.00;;;14.60;98.00;;;;;;5031336;28;20541;-71
2022/09/01 03:46:32;;;;;;;5.77;3.17;;;14.40;98.00;;;;;;5031258;28;20923;-72
2022/09/01 03:49:00;;;;;;;6.93;3.10;;;14.50;98.00;;;;;;5031075;28;20512;-71
2022/09/01 03:51:30;;;;;;;4.57;3.03;;;14.70;98.00;;;;;;5030973;28;20779;-71
2022/09/01 03:53:58;;;;;;;4.40;3.03;;;14.80;98.00;;;;;;5031005;28;20486;-72
2022/09/01 03:56:26;;;;;;;4.80;3.03;;;14.80;98.00;;;;;;5030821;28;20856;-70
2022/09/01 03:58:56;;;;;;;4.37;2.97;;;14.80;98.00;;;;;;5031014;28;20541;-70
2022/09/01 04:01:24;;;;;;;4.77;3.00;;;14.70;98.00;;;;;;5030683;28;20561;-71
2022/09/01 04:03:52;;;;;;;4.20;3.03;;;14.70;98.00;;;;;;5030996;28;20945;-72
2022/09/01 04:06:22;;;;;;;4.73;2.93;;;14.70;98.00;;;;;;5030151;28;20508;-71
2022/09/01 04:08:54;;;;;;;4.50;2.83;;;14.80;98.00;;;;;;5030813;28;20494;-71
2022/09/01 04:11:22;;;;;;;5.70;3.27;;;15.00;98.00;;;;;;5033200;28;20945;-72
2022/09/01 04:13:49;;;;;;;5.37;3.13;;;15.00;98.00;;;;;;5017327;28;20461;-71
2022/09/01 04:18:59;;;;;;;4.30;3.00;;;14.90;98.00;;;;;;5033626;28;21035;-71
2022/09/01 04:21:29;;;;;;;5.57;3.37;;;14.90;98.00;;;;;;5034845;28;20890;-71
2022/09/01 04:24:04;;;;;;;4.67;3.10;;;14.80;98.00;;;;;;5034694;28;20468;-71
2022/09/01 04:26:32;;;;;;;5.80;2.67;;;14.90;98.00;;;;;;5034790;28;20481;-71
2022/09/01 04:28:59;;;;;;;5.20;3.53;;;15.00;98.00;;;;;;5034678;28;20458;-71
2022/09/01 04:31:26;;;;;;;8.30;2.90;;;15.00;98.00;;;;;;5034801;28;20537;-71
2022/09/01 04:33:54;;;;;;;5.33;2.70;;;15.10;98.00;;;;;;5034644;28;20450;-71
2022/09/01 04:36:24;;;;;;;6.70;3.80;;;15.30;98.00;;;;;;5016668;28;20850;-70
2022/09/01 04:38:54;;;;;;;6.33;3.60;;;15.40;98.00;;;;;;5034330;28;20463;-71
2022/09/01 04:41:24;;;;;;;5.07;2.93;;;15.40;98.00;;;;;;5034446;28;20555;-71
2022/09/01 04:43:55;;;;;;;5.13;2.93;;;15.60;98.00;;;;;;5016714;28;20465;-71
2022/09/01 04:46:27;;;;;;;6.13;3.27;;;15.70;98.00;;;;;;5034139;28;20458;-71
2022/09/01 04:48:57;;;;;;;6.20;3.93;;;15.60;98.00;;;;;;5033948;28;20959;-71
2022/09/01 04:51:26;;;;;;;5.73;2.93;;;15.40;98.00;;;;;;5034259;28;20557;-70
2022/09/01 04:53:56;;;;;;;13.03;3.90;;;15.30;98.00;;;;;;5034069;28;20470;-71
2022/09/01 04:56:29;;;;;;;4.80;3.20;;;15.40;98.00;;;;;;5033949;28;20533;-70
2022/09/01 04:58:56;;;;;;;4.00;2.87;;;15.40;98.00;;;;;;5033903;28;20470;-71
2022/09/01 05:01:25;;;;;;;4.60;3.17;;;15.60;98.00;;;;;;5034152;28;20467;-71
2022/09/01 05:04:00;;;;;;;5.23;3.20;;;15.70;98.00;;;;;;5033740;28;20467;-71
2022/09/01 05:06:32;;;;;;;4.73;3.30;;;15.70;98.00;;;;;;5034058;28;20534;-70
2022/09/01 05:08:59;;;;;;;4.83;3.47;;;15.60;98.00;;;;;;5016988;28;20561;-71
2022/09/01 05:11:28;;;;;;;7.17;3.90;;;15.60;98.00;;;;;;5034621;28;20492;-72
2022/09/01 05:14:04;;;;;;;5.53;3.03;;;15.60;98.00;;;;;;5034386;28;20470;-70
2022/09/01 05:16:32;;;;;;;4.73;3.20;;;15.60;98.00;;;;;;5033910;28;20492;-71
2022/09/01 05:19:00;;;;;;;5.07;3.40;;;15.60;98.00;;;;;;5033744;28;20450;-71
2022/09/01 05:21:28;;;;;;;8.40;3.23;;;15.70;98.00;;;;;;5033102;28;20455;-71
2022/09/01 05:23:57;;;;;;;4.20;3.03;;;15.60;98.00;;;;;;5032800;28;20466;-71
2022/09/01 05:26:28;;;;;;;7.30;3.43;;;15.80;98.00;;;;;;5033730;28;20471;-71
2022/09/01 05:28:58;;;;;;;6.20;3.43;;;15.80;98.00;;;;;;5033800;28;20525;-71
2022/09/01 05:31:33;;;;;;;9.07;3.53;;;15.80;98.00;;;;;;5033400;28;20454;-70
2022/09/01 05:34:25;;;;;;;4.63;2.60;;;15.80;98.00;;;;;;5033554;28;20484;-71
2022/09/01 05:36:53;;;;;;;5.87;3.00;;;15.80;98.00;;;;;;5033118;28;20482;-71
2022/09/01 05:39:23;;;;;;;3.37;2.90;;;16.00;98.00;;;;;;5015980;28;20469;-71
2022/09/01 05:41:52;;;;;;;7.47;3.43;;;16.10;98.00;;;;;;5033078;28;20513;-71
2022/09/01 05:44:21;;;;;;;6.67;3.40;;;16.20;98.00;;;;;;5033248;28;20969;-71
2022/09/01 05:46:49;;;;;;;5.00;3.30;;;16.30;98.00;;;;;;5033104;28;20454;-72
2022/09/01 05:49:17;;;;;;;6.33;3.40;;;16.30;98.00;;;;;;5015737;28;20466;-71
2022/09/01 05:51:48;;;;;;;6.17;3.30;;;16.30;98.00;;;;;;5033020;28;20832;-70
2022/09/01 05:54:17;;;;;;;7.60;4.70;;;16.20;98.00;;;;;;5032601;28;20474;-72
2022/09/01 05:56:48;;;;;;;4.83;3.03;;;16.20;98.00;;;;;;5032703;28;21026;-70
2022/09/01 05:59:17;;;;;;;10.53;3.50;;;16.20;98.00;;;;;;5032319;28;20809;-70
2022/09/01 06:01:46;;;;;;;4.10;2.83;;;16.20;98.00;;;;;;5032898;28;20466;-70
2022/09/01 06:04:14;;;;;;;5.90;3.87;;;16.30;98.00;;;;;;5032735;28;20859;-72
2022/09/01 06:06:45;;;;;;;6.83;3.20;;;16.30;98.00;;;;;;5032656;28;20459;-74
2022/09/01 06:09:14;;;;;;;6.33;3.20;;;16.40;98.00;;;;;;5032675;28;20481;-74
2022/09/01 06:11:41;;;;;;;5.40;3.57;;;16.30;98.00;;;;;;5032751;28;20463;-74
2022/09/01 06:14:10;;;;;;;5.40;3.67;;;16.30;98.00;;;;;;5032547;28;20458;-74
2022/09/01 06:16:39;;;;;;;5.30;3.40;;;16.50;98.00;;;;;;5032358;28;20490;-74
2022/09/01 06:19:06;;;;;;;5.73;2.97;;;16.60;98.00;;;;;;5032408;28;20527;-73
2022/09/01 06:21:34;;;;;;;4.57;2.90;;;16.70;98.00;;;;;;5032258;28;20469;-73
2022/09/01 06:24:05;;;;;;;6.00;3.47;;;16.80;98.00;;;;;;5032720;28;20486;-73
2022/09/01 06:26:35;;;;;;;4.90;3.50;;;16.80;98.00;;;;;;5032685;28;20501;-74
2022/09/01 06:29:05;;;;;;;4.80;3.20;;;16.80;98.00;;;;;;5032453;28;20455;-72
2022/09/01 06:31:37;;;;;;;8.23;4.10;;;16.80;98.00;;;;;;5032614;28;20454;-73
2022/09/01 06:34:08;;;;;;;5.60;3.70;;;16.80;98.00;;;;;;5031781;28;20462;-74
2022/09/01 06:36:42;;;;;;;7.40;3.13;;;16.80;98.00;;;;;;5032242;28;20521;-73
2022/09/01 06:39:18;;;;;;;6.00;3.57;;;16.80;98.00;;;;;;5032359;28;20455;-73
2022/09/01 06:41:51;;;;;;;8.10;4.00;;;16.90;98.00;;;;;;5032219;28;20488;-74
2022/09/01 06:44:21;;;;;;;6.93;3.77;;;17.00;98.00;;;;;;5015470;28;20462;-73
2022/09/01 06:46:50;;;;;;;9.30;3.97;;;17.20;98.00;;;;;;5032060;28;20459;-74
2022/09/01 06:49:20;;;;;;;5.80;3.87;;;17.30;98.00;;;;;;5032046;28;20861;-74
2022/09/01 06:51:48;;;;;;;13.90;4.93;;;17.40;98.00;;;;;;5031939;28;20803;-73
2022/09/01 06:54:16;;;;;;;8.60;4.57;;;17.50;98.00;;;;;;5031872;28;20458;-73
2022/09/01 06:56:43;;;;;;;10.10;4.67;;;17.70;98.00;;;;;;5031611;28;21113;-73
2022/09/01 06:59:11;;;;;;;8.13;3.63;;;17.80;98.00;;;;;;5031747;28;20972;-74
2022/09/01 07:01:40;;;;;;;10.00;4.50;;;17.80;98.00;;;;;;5031724;28;20458;-74
2022/09/01 07:04:08;;;;;;;6.87;3.50;;;17.80;98.00;;;;;;5031671;28;20469;-74
2022/09/01 07:06:40;;;;;;;5.00;3.27;;;17.80;98.00;;;;;;5014221;28;20454;-74
2022/09/01 07:09:08;;;;;;;7.30;3.50;;;17.90;98.00;;;;;;5031470;28;20494;-73
2022/09/01 07:11:36;;;;;;;7.87;3.97;;;18.10;98.00;;;;;;5013461;28;20465;-72
2022/09/01 07:14:05;;;;;;;5.57;3.50;;;18.40;98.00;;;;;;5014013;28;20521;-73
2022/09/01 07:16:39;;;;;;;8.50;3.70;;;18.50;98.00;;;;;;5032875;28;20869;-73
2022/09/01 07:19:09;;;;;;;9.43;4.30;;;18.70;98.00;;;;;;5057393;28;20460;-74
2022/09/01 07:21:37;;;;;;;5.70;3.37;;;18.80;98.00;;;;;;5065975;28;20453;-73
2022/09/01 07:24:06;;;;;;;6.70;3.60;;;18.90;98.00;;;;;;5051249;28;20927;-73
2022/09/01 07:26:34;;;;;;;6.90;4.03;;;18.80;98.00;;;;;;5051487;28;20466;-73
2022/09/01 07:29:03;;;;;;;6.03;3.40;;;18.90;98.00;;;;;;5066592;28;20532;-73
2022/09/01 07:31:33;;;;;;;6.53;3.73;;;19.00;98.00;;;;;;5050843;28;20469;-73
2022/09/01 07:34:03;;;;;;;7.83;3.63;;;19.10;98.00;;;;;;5040271;28;20453;-74
2022/09/01 07:36:30;;;;;;;5.63;3.20;;;19.30;98.00;;;;;;5056303;28;20486;-73
2022/09/01 07:39:02;;;;;;;7.50;3.90;;;19.40;98.00;;;;;;5048811;28;20599;-75
2022/09/01 07:41:33;;;;;;;6.60;3.67;;;19.50;98.00;;;;;;5032336;28;21048;-73
2022/09/01 07:44:04;;;;;;;9.83;3.70;;;19.50;98.00;;;;;;5058884;28;21180;-73
2022/09/01 07:46:31;;;;;;;6.90;3.50;;;19.70;98.00;;;;;;5050747;28;20882;-74
2022/09/01 07:49:00;;;;;;;7.70;4.30;;;19.80;98.00;;;;;;5067751;28;20483;-72
2022/09/01 07:51:31;;;;;;;5.83;3.33;;;19.90;98.00;;;;;;5050116;28;20552;-72
2022/09/01 07:54:02;;;;;;;8.50;2.93;;;19.90;98.00;;;;;;5055589;28;20947;-65
2022/09/01 07:56:30;;;;;;;13.53;4.90;;;19.90;98.00;;;;;;5048982;28;20481;-65
2022/09/01 07:58:58;;;;;;;6.60;3.27;;;20.10;98.00;;;;;;5033733;28;21032;-66
2022/09/01 08:01:27;;;;;;;5.60;3.10;;;20.30;98.00;;;;;;5055651;28;20456;-65
2022/09/01 08:03:57;;;;;;;6.57;3.57;;;20.60;98.00;;;;;;5061478;28;20460;-62
2022/09/01 08:06:27;;;;;;;5.37;3.20;;;20.80;98.00;;;;;;5064231;28;20940;-65
2022/09/01 08:08:56;;;;;;;6.67;3.70;;;20.90;98.00;;;;;;5063124;28;20510;-65
2022/09/01 08:11:28;;;;;;;5.87;3.67;;;20.70;98.00;;;;;;5068318;28;20463;-65
2022/09/01 08:13:57;;;;;;;5.50;3.00;;;20.50;98.00;;;;;;5064105;28;20526;-65
2022/09/01 08:16:25;;;;;;;6.20;3.43;;;20.50;98.00;;;;;;5058581;28;20449;-65
2022/09/01 08:18:54;;;;;;;5.03;3.20;;;20.60;98.00;;;;;;5058348;28;20460;-65
2022/09/01 08:21:22;;;;;;;6.27;2.97;;;20.70;98.00;;;;;;5061735;28;20461;-65
2022/09/01 08:23:51;;;;;;;3.90;2.70;;;20.70;98.00;;;;;;5049222;28;20488;-65
2022/09/01 08:26:21;;;;;;;5.10;3.00;;;20.80;98.00;;;;;;5064315;28;20453;-65
2022/09/01 08:28:52;;;;;;;7.00;3.47;;;20.80;98.00;;;;;;5053931;28;20453;-65
2022/09/01 08:31:23;;;;;;;5.23;3.60;;;20.80;98.00;;;;;;5056814;28;20526;-65
2022/09/01 08:33:52;;;;;;;4.60;3.13;;;20.80;98.00;;;;;;5049550;28;20541;-65
2022/09/01 09:00:22;;;;;;;4.93;3.10;;;21.20;98.00;;;;;;4890453;29;20469;-90
2022/09/01 09:02:58;;;;;;;5.30;3.10;;;21.20;98.00;;;;;;4933938;29;20484;-87
2022/09/01 09:05:43;;;;;;;5.60;3.20;;;21.20;98.00;;;;;;5018256;28;20544;-91
2022/09/01 09:08:41;;;;;;;5.23;3.17;;;21.20;98.00;;;;;;5034765;28;20453;-90
2022/09/01 09:11:22;;;;;;;6.13;3.83;;;21.30;98.00;;;;;;5047967;28;20492;-91
2022/09/01 09:13:59;;;;;;;6.30;2.97;;;21.50;98.00;;;;;;5032979;28;20468;-89
2022/09/01 09:16:30;;;;;;;4.50;3.00;;;21.90;98.00;;;;;;5032153;28;20469;-88
2022/09/01 09:19:02;;;;;;;5.10;3.00;;;22.00;98.00;;;;;;5047584;28;20992;-92
2022/09/01 09:21:34;;;;;;;4.77;2.93;;;22.20;98.00;;;;;;5041341;28;20488;-91
2022/09/01 09:24:09;;;;;;;6.33;3.10;;;22.10;98.00;;;;;;5032346;28;20474;-90
2022/09/01 09:26:38;;;;;;;3.70;2.50;;;22.20;98.00;;;;;;5041846;28;20484;-90
2022/09/01 09:29:05;;;;;;;4.07;2.53;;;22.20;98.00;;;;;;5030707;28;20466;-91
2022/09/01 09:31:37;;;;;;;4.07;2.90;;;22.40;98.00;;;;;;5040221;28;20490;-90
2022/09/01 09:34:15;;;;;;;4.10;2.60;;;22.40;98.00;;;;;;5038484;28;20469;-90
2022/09/01 09:36:45;;;;;;;5.80;3.57;;;22.50;98.00;;;;;;5031905;28;20453;-87
2022/09/01 09:39:15;;;;;;;4.60;2.67;;;22.50;98.00;;;;;;5044612;28;20474;-89
2022/09/01 09:42:00;;;;;;;5.27;3.23;;;22.50;98.00;;;;;;5042267;28;20594;-89
2022/09/01 09:44:30;;;;;;;5.97;3.17;;;22.70;98.00;;;;;;5046734;28;20466;-89
2022/09/01 09:46:57;;;;;;;5.50;3.20;;;22.80;98.00;;;;;;5038926;28;20497;-88
2022/09/01 09:49:27;;;;;;;4.40;2.60;;;23.00;98.00;;;;;;5033687;28;20992;-89
2022/09/01 09:51:57;;;;;;;4.63;2.97;;;22.90;98.00;;;;;;5039427;28;20518;-91
2022/09/01 09:54:26;;;;;;;4.97;2.63;;;22.80;98.00;;;;;;5031520;28;20549;-90
2022/09/01 09:57:12;;;;;;;4.63;2.97;;;22.80;98.00;;;;;;5031299;28;20472;-89
2022/09/01 09:59:42;;;;;;;3.60;2.67;;;23.20;98.00;;;;;;5031037;28;20454;-89
2022/09/01 10:02:29;;;;;;;4.33;2.73;;;23.30;98.00;;;;;;5022139;28;20541;-88
2022/09/01 10:04:57;;;;;;;5.87;3.70;;;23.30;98.00;;;;;;5043299;28;20470;-89
2022/09/01 10:07:31;;;;;;;3.90;3.00;;;23.10;98.00;;;;;;5029683;28;20467;-89
2022/09/01 10:10:00;;;;;;;3.73;2.73;;;22.90;98.00;;;;;;5033461;28;20469;-90
2022/09/01 10:12:30;;;;;;;4.33;2.80;;;22.60;98.00;;;;;;5035579;28;20505;-89
2022/09/01 10:15:02;;;;;;;6.47;3.60;;;22.40;98.00;;;;;;5037407;28;20516;-89
2022/09/01 10:17:34;;;;;;;4.07;2.53;;;22.30;98.00;;;;;;5040984;28;20513;-90
2022/09/01 10:20:06;;;;;;;3.80;2.80;;;22.40;98.00;;;;;;5047790;28;20499;-89
2022/09/01 10:22:35;;;;;;;5.03;2.77;;;22.50;98.00;;;;;;5038688;28;20656;-88
2022/09/01 10:25:02;;;;;;;5.67;3.33;;;22.50;98.00;;;;;;5046309;28;20462;-90
2022/09/01 10:27:35;;;;;;;5.03;3.37;;;22.50;98.00;;;;;;5038315;28;20468;-89
2022/09/01 10:30:08;;;;;;;5.20;2.90;;;22.50;98.00;;;;;;5033268;28;20466;-91
2022/09/01 10:32:41;;;;;;;4.83;2.90;;;22.60;98.00;;;;;;5037291;28;20841;-90
2022/09/01 10:35:12;;;;;;;4.40;2.90;;;22.60;98.00;;;;;;5039658;28;21008;-90
2022/09/01 10:37:40;;;;;;;4.77;3.27;;;22.70;98.00;;;;;;5036632;28;20485;-90
2022/09/01 10:40:17;;;;;;;3.27;2.70;;;22.80;98.00;;;;;;5051479;28;20988;-90
2022/09/01 10:42:52;;;;;;;5.17;3.27;;;22.90;98.00;;;;;;5038870;28;20486;-91
2022/09/01 10:45:31;;;;;;;4.10;2.90;;;23.20;98.00;;;;;;5031843;28;20469;-90
2022/09/01 10:48:25;;;;;;;6.53;3.03;;;23.30;98.00;;;;;;5033341;28;20524;-89
2022/09/01 10:50:55;;;;;;;5.33;3.07;;;23.50;98.00;;;;;;5036012;28;20539;-90
2022/09/01 10:53:38;;;;;;;4.23;2.83;;;24.10;98.00;;;;;;5048262;28;20957;-90
2022/09/01 10:56:09;;;;;;;4.73;2.87;;;24.20;97.40;;;;;;5031101;28;20505;-90
2022/09/01 10:59:04;;;;;;;5.60;3.43;;;24.00;97.70;;;;;;5045383;28;20494;-90
2022/09/01 11:02:08;;;;;;;5.73;3.17;;;23.80;98.00;;;;;;5019952;28;20486;-90
2022/09/01 11:05:08;;;;;;;6.47;3.27;;;23.60;98.00;;;;;;5038430;28;20461;-90
2022/09/01 11:07:37;;;;;;;4.37;3.20;;;23.70;98.00;;;;;;5023213;28;20461;-88
2022/09/01 11:10:23;;;;;;;5.20;3.27;;;24.10;98.00;;;;;;5030098;28;20466;-90
2022/09/01 11:13:06;;;;;;;3.77;2.90;;;24.10;98.00;;;;;;5037981;28;20504;-90
2022/09/01 11:15:39;;;;;;;4.97;3.20;;;24.40;97.40;;;;;;5031532;28;20528;-89
2022/09/01 11:18:14;;;;;;;3.90;3.07;;;24.60;97.40;;;;;;5037729;28;20563;-89
2022/09/01 11:20:43;;;;;;;3.90;2.90;;;24.70;95.20;;;;;;5040253;28;20462;-89
2022/09/01 11:23:13;;;;;;;8.03;4.00;;;24.60;96.20;;;;;;5035828;28;20466;-90
2022/09/01 11:25:42;;;;;;;4.10;3.00;;;24.70;95.20;;;;;;5040232;28;20462;-89
2022/09/01 11:28:38;;;;;;;3.80;2.43;;;24.70;95.10;;;;;;5036640;28;20474;-88
2022/09/01 11:31:32;;;;;;;4.03;2.63;;;24.80;94.70;;;;;;5022484;28;20737;-89
2022/09/01 11:34:10;;;;;;;5.63;3.27;;;24.70;94.70;;;;;;5025282;28;20855;-88
2022/09/01 11:36:47;;;;;;;4.20;3.10;;;24.50;95.70;;;;;;5036814;28;20531;-89
2022/09/01 11:39:29;;;;;;;5.37;3.40;;;24.40;95.50;;;;;;5039020;28;20997;-91
2022/09/01 11:42:00;;;;;;;3.77;3.00;;;24.40;96.80;;;;;;5038226;28;20527;-90
2022/09/01 11:44:32;;;;;;;5.23;3.07;;;24.40;96.10;;;;;;5051177;28;20716;-90
2022/09/01 11:47:04;;;;;;;3.60;2.80;;;24.20;96.90;;;;;;5050953;28;20460;-90
2022/09/01 11:49:33;;;;;;;5.80;3.30;;;24.00;97.10;;;;;;5050557;28;20466;-90
2022/09/01 11:52:02;;;;;;;6.00;3.37;;;23.80;95.90;;;;;;5051426;28;20996;-90
2022/09/01 11:54:37;;;;;;;3.40;2.80;;;23.60;97.30;;;;;;5052016;28;20465;-90
2022/09/01 11:57:18;;;;;;;5.33;3.17;;;23.60;98.00;;;;;;5050088;28;20467;-88
2022/09/01 11:59:45;;;;;;;4.50;3.40;;;23.60;98.00;;;;;;5050252;28;20464;-90
2022/09/01 12:02:21;;;;;;;7.33;3.73;;;23.60;98.00;;;;;;5050522;28;20565;-90
2022/09/01 12:04:50;;;;;;;4.50;3.30;;;23.60;98.00;;;;;;5053759;28;20460;-90
2022/09/01 12:07:29;;;;;;;5.50;3.27;;;23.60;98.00;;;;;;5054673;28;20476;-89
2022/09/01 12:09:56;;;;;;;6.77;3.60;;;24.20;98.00;;;;;;5055105;28;20476;-91
2022/09/01 12:12:34;;;;;;;5.80;3.47;;;25.10;95.80;;;;;;5055650;28;20508;-90
2022/09/01 12:15:05;;;;;;;6.27;3.43;;;25.80;92.80;;;;;;5040317;28;20458;-90
2022/09/01 12:17:34;;;;;;;6.47;3.40;;;26.50;91.40;;;;;;5035019;28;20447;-91
2022/09/01 12:20:23;;;;;;;4.93;3.17;;;26.90;88.90;;;;;;5035584;28;20998;-90
2022/09/01 12:22:51;;;;;;;4.80;3.00;;;27.30;89.50;;;;;;5034769;28;20846;-90
2022/09/01 12:28:22;;;;;;;5.50;3.27;;;27.00;87.70;;;;;;4987084;28;20463;-91
2022/09/01 12:30:50;;;;;;;4.10;3.10;;;26.80;89.30;;;;;;5035346;28;20586;-90
2022/09/01 12:36:33;;;;;;;6.33;3.80;;;26.80;88.40;;;;;;5037460;28;20474;-92
2022/09/01 12:39:23;;;;;;;4.93;3.37;;;26.50;88.70;;;;;;5028509;28;20486;-90
2022/09/01 12:42:07;;;;;;;5.23;3.47;;;26.80;88.80;;;;;;5038516;28;20470;-91
2022/09/01 12:44:58;;;;;;;5.00;3.07;;;27.10;86.90;;;;;;5022072;28;20459;-90
2022/09/01 12:47:55;;;;;;;3.60;2.97;;;27.50;87.50;;;;;;5020405;28;20494;-90
2022/09/01 12:50:45;;;;;;;5.40;3.27;;;28.10;84.80;;;;;;5017118;28;20958;-87
2022/09/01 12:53:24;;;;;;;4.00;3.10;;;28.50;84.20;;;;;;5017584;28;20937;-89
2022/09/01 12:56:01;;;;;;;6.17;3.57;;;28.90;82.60;;;;;;5017669;28;20462;-89
2022/09/01 12:58:30;;;;;;;5.27;3.10;;;29.30;82.60;;;;;;5015913;28;20483;-89
2022/09/01 13:01:04;;;;;;;5.70;3.20;;;29.70;81.40;;;;;;5017302;28;20491;-89
2022/09/01 13:03:32;;;;;;;5.03;3.27;;;29.90;81.30;;;;;;5017573;28;20502;-89
2022/09/01 13:06:01;;;;;;;5.37;3.70;;;30.00;80.40;;;;;;5015499;28;20472;-90
2022/09/01 13:08:32;;;;;;;5.17;3.47;;;30.00;79.20;;;;;;5017163;28;20456;-90
2022/09/01 13:11:05;;;;;;;4.80;3.30;;;30.00;80.50;;;;;;5018105;28;20482;-91
2022/09/01 13:13:34;;;;;;;4.50;3.10;;;29.80;79.50;;;;;;5018738;28;20538;-91
2022/09/01 13:16:11;;;;;;;4.03;2.97;;;29.90;80.50;;;;;;5018089;28;20535;-90
2022/09/01 13:19:05;;;;;;;6.53;3.97;;;30.00;80.40;;;;;;5020081;28;20479;-93
2022/09/01 13:21:36;;;;;;;5.37;3.10;;;30.20;79.70;;;;;;5019061;28;20554;-90
2022/09/01 13:24:10;;;;;;;5.20;3.37;;;30.30;80.10;;;;;;5018119;28;20459;-91
2022/09/01 13:26:40;;;;;;;4.50;2.90;;;30.30;77.80;;;;;;5018844;28;20467;-93
2022/09/01 13:29:16;;;;;;;7.07;3.10;;;29.70;79.60;;;;;;5018017;28;20515;-91
2022/09/01 13:31:43;;;;;;;3.30;2.70;;;29.50;79.90;;;;;;5019002;28;20487;-93
2022/09/01 13:34:14;;;;;;;5.80;3.47;;;29.40;81.80;;;;;;5018737;28;20470;-93
2022/09/01 13:36:42;;;;;;;4.13;2.90;;;29.00;80.60;;;;;;5016099;28;20463;-93
2022/09/01 13:39:09;;;;;;;3.70;2.77;;;28.50;81.90;;;;;;5013393;28;21096;-92
2022/09/01 13:41:37;;;;;;;5.40;3.80;;;27.60;83.10;;;;;;5014166;28;20479;-92
2022/09/01 13:44:04;;;;;;;3.90;3.10;;;27.50;85.10;;;;;;5012828;28;20527;-92